WZZ6306 LHBP-LIMJ
Flight info
| Callsign | WZZ6306 |
|---|---|
| Flight time | 1h 24m |
| Altitude | 36000 |
| Route | GILEP DCT ZOLKU DCT SUNIS DCT RADLY DCT ABISO DCT RIFEN/N0447F350 DCT KOPER DCT NISIL DCT BEROK/N0450F360 DCT MIVKI/N0362F180 M730 KALMO |
| Aircraft | A21N/M-SDE1E2E3FGIJ1J4RWXY/LB1 |
Departure
| Time | 2026-04-14 11:37 |
|---|---|
| Airport | Budapest Liszt Ferenc International Airport (LHBP) |
Arrival
| Time | 2026-04-14 13:02 |
|---|---|
| Airport | Genoa Cristoforo Colombo Airport (LIMJ) |
| Time | Latitude | Longitude | Altitude | Speed | Heading |
|---|---|---|---|---|---|
| 2026-04-14 11:12 | 47.43537 | 19.26432 | 475 ft | 0 kts | 221° |
| 2026-04-14 11:27 | 47.43546 | 19.26444 | 475 ft | 2 kts | 221° |
| 2026-04-14 11:27 | 47.43557 | 19.26459 | 475 ft | 2 kts | 222° |
| 2026-04-14 11:28 | 47.43568 | 19.26475 | 475 ft | 2 kts | 252° |
| 2026-04-14 11:28 | 47.43568 | 19.26498 | 475 ft | 2 kts | 290° |
| 2026-04-14 11:28 | 47.43560 | 19.26515 | 475 ft | 2 kts | 320° |
| 2026-04-14 11:28 | 47.43552 | 19.26526 | 475 ft | 0 kts | 311° |
| 2026-04-14 11:29 | 47.43550 | 19.26528 | 475 ft | 0 kts | 310° |
| 2026-04-14 11:31 | 47.43552 | 19.26526 | 475 ft | 0 kts | 310° |
| 2026-04-14 11:31 | 47.43557 | 19.26516 | 475 ft | 1 kts | 310° |
| 2026-04-14 11:32 | 47.43568 | 19.26498 | 475 ft | 3 kts | 313° |
| 2026-04-14 11:32 | 47.43587 | 19.26470 | 476 ft | 4 kts | 313° |
| 2026-04-14 11:32 | 47.43612 | 19.26430 | 476 ft | 6 kts | 312° |
| 2026-04-14 11:32 | 47.43644 | 19.26379 | 477 ft | 7 kts | 311° |
| 2026-04-14 11:33 | 47.43687 | 19.26343 | 477 ft | 7 kts | 12° |
| 2026-04-14 11:33 | 47.43731 | 19.26391 | 477 ft | 8 kts | 43° |
| 2026-04-14 11:33 | 47.43781 | 19.26414 | 477 ft | 9 kts | 333° |
| 2026-04-14 11:34 | 47.43879 | 19.26267 | 479 ft | 10 kts | 312° |
| 2026-04-14 11:34 | 47.43933 | 19.26210 | 480 ft | 9 kts | 359° |
| 2026-04-14 11:34 | 47.43979 | 19.26242 | 480 ft | 3 kts | 43° |
| 2026-04-14 11:34 | 47.43987 | 19.26253 | 481 ft | 0 kts | 44° |
| 2026-04-14 11:35 | 47.43994 | 19.26262 | 481 ft | 2 kts | 44° |
| 2026-04-14 11:35 | 47.44011 | 19.26287 | 481 ft | 4 kts | 44° |
| 2026-04-14 11:35 | 47.44039 | 19.26330 | 481 ft | 7 kts | 52° |
| 2026-04-14 11:35 | 47.44063 | 19.26425 | 480 ft | 13 kts | 83° |
| 2026-04-14 11:36 | 47.44052 | 19.26546 | 479 ft | 11 kts | 123° |
| 2026-04-14 11:36 | 47.44038 | 19.26571 | 478 ft | 0 kts | 132° |
| 2026-04-14 11:36 | 47.43936 | 19.26735 | 475 ft | 57 kts | 132° |
| 2026-04-14 11:36 | 47.43507 | 19.27429 | 457 ft | 123 kts | 132° |
| 2026-04-14 11:37 | 47.42809 | 19.28557 | 523 ft | 165 kts | 132° |
| 2026-04-14 11:37 | 47.42033 | 19.29831 | 1057 ft | 170 kts | 128° |
| 2026-04-14 11:37 | 47.41376 | 19.31278 | 1777 ft | 170 kts | 120° |
| 2026-04-14 11:37 | 47.40847 | 19.32901 | 2165 ft | 185 kts | 115° |
| 2026-04-14 11:38 | 47.40242 | 19.34686 | 2484 ft | 203 kts | 118° |
| 2026-04-14 11:38 | 47.39531 | 19.36615 | 2760 ft | 225 kts | 120° |
| 2026-04-14 11:38 | 47.38741 | 19.38666 | 3431 ft | 230 kts | 123° |
| 2026-04-14 11:38 | 47.37609 | 19.40327 | 3974 ft | 240 kts | 151° |
| 2026-04-14 11:39 | 47.35952 | 19.40922 | 4519 ft | 254 kts | 180° |
| 2026-04-14 11:39 | 47.34259 | 19.40220 | 5225 ft | 263 kts | 208° |
| 2026-04-14 11:39 | 47.32957 | 19.38270 | 5963 ft | 272 kts | 236° |
| 2026-04-14 11:39 | 47.32069 | 19.35849 | 6706 ft | 274 kts | 238° |
| 2026-04-14 11:40 | 47.31145 | 19.33369 | 7400 ft | 277 kts | 237° |
| 2026-04-14 11:40 | 47.30202 | 19.30873 | 8104 ft | 280 kts | 237° |
| 2026-04-14 11:40 | 47.29236 | 19.28328 | 8796 ft | 283 kts | 236° |
| 2026-04-14 11:40 | 47.28270 | 19.25793 | 9448 ft | 285 kts | 237° |
| 2026-04-14 11:41 | 47.27527 | 19.23101 | 10058 ft | 294 kts | 256° |
| 2026-04-14 11:41 | 47.27355 | 19.20039 | 10556 ft | 305 kts | 265° |
| 2026-04-14 11:41 | 47.27334 | 19.16822 | 10866 ft | 320 kts | 266° |
| 2026-04-14 11:41 | 47.27308 | 19.13495 | 11407 ft | 325 kts | 266° |
| 2026-04-14 11:42 | 47.27254 | 19.10216 | 12065 ft | 326 kts | 265° |
| 2026-04-14 11:42 | 47.27174 | 19.06861 | 12726 ft | 326 kts | 265° |
| 2026-04-14 11:42 | 47.27079 | 19.03546 | 13351 ft | 328 kts | 264° |
| 2026-04-14 11:42 | 47.26970 | 19.00203 | 13968 ft | 329 kts | 264° |
| 2026-04-14 11:43 | 47.26852 | 18.96815 | 14537 ft | 331 kts | 264° |
| 2026-04-14 11:43 | 47.26732 | 18.93470 | 15045 ft | 334 kts | 265° |
| 2026-04-14 11:43 | 47.26604 | 18.90003 | 15507 ft | 340 kts | 265° |
| 2026-04-14 11:43 | 47.26474 | 18.86517 | 16022 ft | 343 kts | 265° |
| 2026-04-14 11:44 | 47.26342 | 18.83050 | 16527 ft | 345 kts | 265° |
| 2026-04-14 11:44 | 47.26208 | 18.79516 | 17020 ft | 348 kts | 265° |
| 2026-04-14 11:44 | 47.26070 | 18.75948 | 17506 ft | 350 kts | 265° |
| 2026-04-14 11:44 | 47.25930 | 18.72337 | 17982 ft | 353 kts | 265° |
| 2026-04-14 11:45 | 47.25786 | 18.68680 | 18437 ft | 356 kts | 265° |
| 2026-04-14 11:45 | 47.25644 | 18.65081 | 18898 ft | 358 kts | 265° |
| 2026-04-14 11:45 | 47.25495 | 18.61373 | 19371 ft | 360 kts | 266° |
| 2026-04-14 11:45 | 47.25348 | 18.57723 | 19829 ft | 362 kts | 266° |
| 2026-04-14 11:46 | 47.25198 | 18.54022 | 20281 ft | 363 kts | 266° |
| 2026-04-14 11:46 | 47.25044 | 18.50250 | 20739 ft | 365 kts | 266° |
| 2026-04-14 11:46 | 47.24890 | 18.46518 | 21172 ft | 366 kts | 266° |
| 2026-04-14 11:46 | 47.24735 | 18.42795 | 21594 ft | 368 kts | 266° |
| 2026-04-14 11:47 | 47.24575 | 18.38978 | 22005 ft | 369 kts | 266° |
| 2026-04-14 11:47 | 47.24415 | 18.35190 | 22407 ft | 371 kts | 266° |
| 2026-04-14 11:47 | 47.24256 | 18.31444 | 22810 ft | 372 kts | 265° |
| 2026-04-14 11:47 | 47.24093 | 18.27648 | 23208 ft | 374 kts | 265° |
| 2026-04-14 11:48 | 47.23928 | 18.23823 | 23608 ft | 375 kts | 265° |
| 2026-04-14 11:48 | 47.23762 | 18.20030 | 24002 ft | 376 kts | 265° |
| 2026-04-14 11:48 | 47.23595 | 18.16205 | 24375 ft | 377 kts | 265° |
| 2026-04-14 11:48 | 47.23423 | 18.12317 | 24744 ft | 379 kts | 265° |
| 2026-04-14 11:49 | 47.23251 | 18.08435 | 25103 ft | 381 kts | 265° |
| 2026-04-14 11:49 | 47.23076 | 18.04560 | 25442 ft | 383 kts | 265° |
| 2026-04-14 11:49 | 47.22899 | 18.00672 | 25783 ft | 384 kts | 265° |
| 2026-04-14 11:49 | 47.22721 | 17.96809 | 26108 ft | 386 kts | 265° |
| 2026-04-14 11:50 | 47.22535 | 17.92801 | 26426 ft | 388 kts | 265° |
| 2026-04-14 11:50 | 47.22351 | 17.88872 | 26724 ft | 390 kts | 265° |
| 2026-04-14 11:50 | 47.22163 | 17.84844 | 27021 ft | 392 kts | 265° |
| 2026-04-14 11:51 | 47.21784 | 17.76830 | 27565 ft | 396 kts | 265° |
| 2026-04-14 11:51 | 47.21589 | 17.72763 | 27845 ft | 398 kts | 265° |
| 2026-04-14 11:51 | 47.21392 | 17.68665 | 28119 ft | 400 kts | 265° |
| 2026-04-14 11:51 | 47.21193 | 17.64540 | 28413 ft | 401 kts | 265° |
| 2026-04-14 11:52 | 47.20992 | 17.60415 | 28691 ft | 403 kts | 265° |
| 2026-04-14 11:52 | 47.20788 | 17.56283 | 28961 ft | 405 kts | 265° |
| 2026-04-14 11:52 | 47.20583 | 17.52136 | 29221 ft | 407 kts | 265° |
| 2026-04-14 11:52 | 47.20373 | 17.47934 | 29489 ft | 408 kts | 265° |
| 2026-04-14 11:53 | 47.20164 | 17.43788 | 29759 ft | 409 kts | 265° |
| 2026-04-14 11:53 | 47.19950 | 17.39563 | 30016 ft | 411 kts | 265° |
| 2026-04-14 11:53 | 47.19735 | 17.35331 | 30273 ft | 412 kts | 265° |
| 2026-04-14 11:53 | 47.19520 | 17.31156 | 30526 ft | 413 kts | 264° |
| 2026-04-14 11:54 | 47.19299 | 17.26878 | 30764 ft | 415 kts | 264° |
| 2026-04-14 11:54 | 47.19076 | 17.22603 | 30987 ft | 417 kts | 264° |
| 2026-04-14 11:54 | 47.18854 | 17.18376 | 31184 ft | 419 kts | 264° |
| 2026-04-14 11:54 | 47.18626 | 17.14069 | 31423 ft | 420 kts | 264° |
| 2026-04-14 11:55 | 47.18397 | 17.09765 | 31709 ft | 420 kts | 264° |
| 2026-04-14 11:55 | 47.18169 | 17.05500 | 31995 ft | 419 kts | 264° |
| 2026-04-14 11:55 | 47.17939 | 17.01219 | 32267 ft | 419 kts | 264° |
| 2026-04-14 11:55 | 47.17706 | 16.96924 | 32523 ft | 420 kts | 264° |
| 2026-04-14 11:56 | 47.17474 | 16.92680 | 32781 ft | 420 kts | 264° |
| 2026-04-14 11:56 | 47.17237 | 16.88381 | 33044 ft | 420 kts | 264° |
| 2026-04-14 11:56 | 47.16998 | 16.84088 | 33309 ft | 420 kts | 264° |
| 2026-04-14 11:56 | 47.16760 | 16.79834 | 33585 ft | 419 kts | 264° |
| 2026-04-14 11:57 | 47.16521 | 16.75568 | 33871 ft | 418 kts | 264° |
| 2026-04-14 11:57 | 47.16280 | 16.71314 | 34164 ft | 417 kts | 263° |
| 2026-04-14 11:57 | 47.16041 | 16.67105 | 34422 ft | 416 kts | 264° |
| 2026-04-14 11:57 | 47.15798 | 16.62861 | 34635 ft | 416 kts | 264° |
| 2026-04-14 11:58 | 47.15554 | 16.58630 | 34831 ft | 417 kts | 264° |
| 2026-04-14 11:58 | 47.15306 | 16.54370 | 34997 ft | 418 kts | 264° |
| 2026-04-14 11:58 | 47.15057 | 16.50128 | 35124 ft | 418 kts | 264° |
| 2026-04-14 11:58 | 47.14772 | 16.45842 | 35253 ft | 419 kts | 261° |
| 2026-04-14 11:59 | 47.14289 | 16.41633 | 35378 ft | 418 kts | 257° |
| 2026-04-14 11:59 | 47.13584 | 16.37491 | 35498 ft | 418 kts | 252° |
| 2026-04-14 11:59 | 47.12664 | 16.33457 | 35623 ft | 418 kts | 248° |
| 2026-04-14 11:59 | 47.11532 | 16.29548 | 35754 ft | 417 kts | 243° |
| 2026-04-14 12:00 | 47.10206 | 16.25802 | 35874 ft | 417 kts | 239° |
| 2026-04-14 12:00 | 47.08691 | 16.22149 | 35983 ft | 417 kts | 237° |
| 2026-04-14 12:00 | 47.05620 | 16.14981 | 36040 ft | 417 kts | 237° |
| 2026-04-14 12:01 | 47.02522 | 16.07770 | 36044 ft | 417 kts | 237° |
| 2026-04-14 12:01 | 46.99436 | 16.00592 | 36049 ft | 417 kts | 237° |
| 2026-04-14 12:02 | 46.96343 | 15.93412 | 36052 ft | 417 kts | 237° |
| 2026-04-14 12:02 | 46.93239 | 15.86224 | 36057 ft | 417 kts | 237° |
| 2026-04-14 12:03 | 46.90140 | 15.79066 | 36069 ft | 417 kts | 237° |
| 2026-04-14 12:03 | 46.87042 | 15.71926 | 36069 ft | 416 kts | 237° |
| 2026-04-14 12:04 | 46.83949 | 15.64818 | 36073 ft | 416 kts | 237° |
| 2026-04-14 12:04 | 46.80837 | 15.57682 | 36074 ft | 416 kts | 237° |
| 2026-04-14 12:05 | 46.77719 | 15.50554 | 36077 ft | 416 kts | 237° |
| 2026-04-14 12:05 | 46.74570 | 15.43370 | 36082 ft | 416 kts | 237° |
| 2026-04-14 12:06 | 46.71440 | 15.36248 | 36077 ft | 416 kts | 237° |
| 2026-04-14 12:06 | 46.68355 | 15.29244 | 36076 ft | 416 kts | 236° |
| 2026-04-14 12:07 | 46.65225 | 15.22159 | 36064 ft | 415 kts | 236° |
| 2026-04-14 12:07 | 46.62077 | 15.15058 | 36052 ft | 416 kts | 236° |
| 2026-04-14 12:08 | 46.58946 | 15.08002 | 36049 ft | 416 kts | 236° |
| 2026-04-14 12:08 | 46.55820 | 15.00969 | 36063 ft | 416 kts | 236° |
| 2026-04-14 12:09 | 46.52651 | 14.93854 | 36061 ft | 416 kts | 236° |
| 2026-04-14 12:09 | 46.49518 | 14.86840 | 36051 ft | 416 kts | 236° |
| 2026-04-14 12:10 | 46.46349 | 14.79764 | 36051 ft | 416 kts | 236° |
| 2026-04-14 12:10 | 46.43187 | 14.72718 | 36043 ft | 416 kts | 236° |
| 2026-04-14 12:11 | 46.40018 | 14.65676 | 36052 ft | 416 kts | 236° |
| 2026-04-14 12:11 | 46.36867 | 14.58688 | 36044 ft | 417 kts | 236° |
| 2026-04-14 12:12 | 46.33685 | 14.51648 | 36056 ft | 417 kts | 236° |
| 2026-04-14 12:12 | 46.30496 | 14.44609 | 36057 ft | 417 kts | 236° |
| 2026-04-14 12:13 | 46.27315 | 14.37612 | 36056 ft | 417 kts | 236° |
| 2026-04-14 12:13 | 46.23892 | 14.30857 | 36052 ft | 416 kts | 231° |
| 2026-04-14 12:14 | 46.20394 | 14.24306 | 36055 ft | 417 kts | 231° |
| 2026-04-14 12:14 | 46.16837 | 14.17653 | 36045 ft | 417 kts | 231° |
| 2026-04-14 12:15 | 46.13311 | 14.11075 | 36049 ft | 417 kts | 231° |
| 2026-04-14 12:15 | 46.09782 | 14.04506 | 36033 ft | 417 kts | 231° |
| 2026-04-14 12:16 | 46.06229 | 13.97908 | 36026 ft | 418 kts | 231° |
| 2026-04-14 12:16 | 46.02666 | 13.91302 | 36013 ft | 417 kts | 231° |
| 2026-04-14 12:17 | 46.00891 | 13.88021 | 35874 ft | 418 kts | 231° |
| 2026-04-14 12:17 | 45.99113 | 13.84735 | 35721 ft | 421 kts | 231° |
| 2026-04-14 12:17 | 45.97316 | 13.81415 | 35529 ft | 423 kts | 231° |
| 2026-04-14 12:17 | 45.95502 | 13.78070 | 35342 ft | 423 kts | 231° |
| 2026-04-14 12:18 | 45.93721 | 13.74787 | 35156 ft | 423 kts | 231° |
| 2026-04-14 12:18 | 45.91894 | 13.71425 | 35025 ft | 422 kts | 231° |
| 2026-04-14 12:18 | 45.88277 | 13.64781 | 35002 ft | 423 kts | 231° |
| 2026-04-14 12:19 | 45.84925 | 13.57810 | 35001 ft | 426 kts | 237° |
| 2026-04-14 12:19 | 45.82098 | 13.50348 | 35006 ft | 427 kts | 242° |
| 2026-04-14 12:20 | 45.79452 | 13.42721 | 35000 ft | 428 kts | 242° |
| 2026-04-14 12:20 | 45.76778 | 13.35022 | 34993 ft | 428 kts | 242° |
| 2026-04-14 12:21 | 45.74153 | 13.27490 | 34988 ft | 429 kts | 241° |
| 2026-04-14 12:21 | 45.71482 | 13.19845 | 34984 ft | 430 kts | 241° |
| 2026-04-14 12:22 | 45.68795 | 13.12182 | 34975 ft | 431 kts | 241° |
| 2026-04-14 12:22 | 45.66111 | 13.04547 | 34975 ft | 431 kts | 241° |
| 2026-04-14 12:23 | 45.63423 | 12.96922 | 34968 ft | 431 kts | 241° |
| 2026-04-14 12:23 | 45.60740 | 12.89336 | 34974 ft | 431 kts | 241° |
| 2026-04-14 12:24 | 45.58036 | 12.81709 | 34974 ft | 430 kts | 241° |
| 2026-04-14 12:24 | 45.55333 | 12.74112 | 34977 ft | 430 kts | 241° |
| 2026-04-14 12:25 | 45.52626 | 12.66522 | 34975 ft | 431 kts | 241° |
| 2026-04-14 12:25 | 45.49916 | 12.58940 | 34977 ft | 431 kts | 241° |
| 2026-04-14 12:26 | 45.47193 | 12.51345 | 34975 ft | 432 kts | 241° |
| 2026-04-14 12:26 | 45.44453 | 12.43728 | 34976 ft | 432 kts | 241° |
| 2026-04-14 12:27 | 45.41725 | 12.36159 | 34980 ft | 432 kts | 241° |
| 2026-04-14 12:27 | 45.38967 | 12.28532 | 34978 ft | 431 kts | 240° |
| 2026-04-14 12:28 | 45.36222 | 12.20964 | 34979 ft | 431 kts | 240° |
| 2026-04-14 12:28 | 45.33464 | 12.13435 | 34984 ft | 431 kts | 240° |
| 2026-04-14 12:29 | 45.30634 | 12.06064 | 34977 ft | 431 kts | 239° |
| 2026-04-14 12:29 | 45.27834 | 11.98790 | 34980 ft | 431 kts | 239° |
| 2026-04-14 12:30 | 45.24982 | 11.91371 | 34984 ft | 431 kts | 239° |
| 2026-04-14 12:30 | 45.22127 | 11.83955 | 34982 ft | 431 kts | 239° |
| 2026-04-14 12:31 | 45.19257 | 11.76509 | 34987 ft | 432 kts | 240° |
| 2026-04-14 12:31 | 45.16406 | 11.69132 | 34987 ft | 432 kts | 240° |
| 2026-04-14 12:32 | 45.13512 | 11.61661 | 34983 ft | 432 kts | 240° |
| 2026-04-14 12:32 | 45.10628 | 11.54238 | 34981 ft | 432 kts | 240° |
| 2026-04-14 12:33 | 45.07723 | 11.46780 | 34983 ft | 432 kts | 240° |
| 2026-04-14 12:33 | 45.04826 | 11.39360 | 34982 ft | 432 kts | 240° |
| 2026-04-14 12:34 | 45.01921 | 11.31942 | 34982 ft | 432 kts | 239° |
| 2026-04-14 12:34 | 44.99028 | 11.24578 | 34983 ft | 432 kts | 239° |
| 2026-04-14 12:35 | 44.96107 | 11.17156 | 34984 ft | 433 kts | 239° |
| 2026-04-14 12:35 | 44.93176 | 11.09732 | 34988 ft | 433 kts | 239° |
| 2026-04-14 12:36 | 44.90232 | 11.02290 | 34994 ft | 434 kts | 239° |
| 2026-04-14 12:36 | 44.87289 | 10.94874 | 34997 ft | 434 kts | 239° |
| 2026-04-14 12:37 | 44.84363 | 10.87520 | 34995 ft | 434 kts | 239° |
| 2026-04-14 12:37 | 44.81398 | 10.80087 | 34746 ft | 433 kts | 239° |
| 2026-04-14 12:38 | 44.78450 | 10.72715 | 34154 ft | 430 kts | 239° |
| 2026-04-14 12:38 | 44.76983 | 10.69053 | 33631 ft | 429 kts | 239° |
| 2026-04-14 12:38 | 44.75509 | 10.65378 | 32943 ft | 431 kts | 239° |
| 2026-04-14 12:39 | 44.74031 | 10.61703 | 32180 ft | 435 kts | 239° |
| 2026-04-14 12:39 | 44.72522 | 10.57954 | 31524 ft | 435 kts | 239° |
| 2026-04-14 12:39 | 44.71031 | 10.54252 | 31032 ft | 432 kts | 239° |
| 2026-04-14 12:39 | 44.69561 | 10.50607 | 30522 ft | 429 kts | 239° |
| 2026-04-14 12:40 | 44.68094 | 10.46973 | 30027 ft | 426 kts | 239° |
| 2026-04-14 12:40 | 44.66640 | 10.43378 | 29553 ft | 422 kts | 239° |
| 2026-04-14 12:40 | 44.65197 | 10.39815 | 29089 ft | 418 kts | 239° |
| 2026-04-14 12:40 | 44.63765 | 10.36282 | 28628 ft | 414 kts | 239° |
| 2026-04-14 12:41 | 44.62336 | 10.32762 | 28175 ft | 410 kts | 239° |
| 2026-04-14 12:41 | 44.60945 | 10.29341 | 27734 ft | 407 kts | 239° |
| 2026-04-14 12:41 | 44.59548 | 10.25906 | 27287 ft | 404 kts | 239° |
| 2026-04-14 12:41 | 44.58152 | 10.22483 | 26844 ft | 401 kts | 239° |
| 2026-04-14 12:42 | 44.56768 | 10.19089 | 26402 ft | 398 kts | 239° |
| 2026-04-14 12:42 | 44.55397 | 10.15729 | 25964 ft | 395 kts | 239° |
| 2026-04-14 12:42 | 44.54032 | 10.12392 | 25533 ft | 392 kts | 239° |
| 2026-04-14 12:42 | 44.52687 | 10.09108 | 25109 ft | 389 kts | 239° |
| 2026-04-14 12:43 | 44.51329 | 10.05790 | 24673 ft | 386 kts | 239° |
| 2026-04-14 12:43 | 44.49989 | 10.02527 | 24245 ft | 383 kts | 239° |
| 2026-04-14 12:43 | 44.48662 | 9.99299 | 23813 ft | 381 kts | 239° |
| 2026-04-14 12:43 | 44.47334 | 9.96068 | 23382 ft | 378 kts | 239° |
| 2026-04-14 12:44 | 44.46023 | 9.92884 | 22943 ft | 376 kts | 239° |
| 2026-04-14 12:44 | 44.44727 | 9.89737 | 22522 ft | 374 kts | 239° |
| 2026-04-14 12:44 | 44.43420 | 9.86572 | 22091 ft | 372 kts | 239° |
| 2026-04-14 12:45 | 44.40842 | 9.80333 | 21241 ft | 368 kts | 239° |
| 2026-04-14 12:45 | 44.39567 | 9.77249 | 20816 ft | 366 kts | 239° |
| 2026-04-14 12:45 | 44.38304 | 9.74200 | 20394 ft | 365 kts | 239° |
| 2026-04-14 12:45 | 44.37041 | 9.71152 | 19981 ft | 363 kts | 239° |
| 2026-04-14 12:46 | 44.35765 | 9.68079 | 19551 ft | 362 kts | 239° |
| 2026-04-14 12:46 | 44.34511 | 9.65065 | 19133 ft | 360 kts | 239° |
| 2026-04-14 12:46 | 44.33248 | 9.62031 | 18710 ft | 359 kts | 240° |
| 2026-04-14 12:46 | 44.32014 | 9.59029 | 18291 ft | 358 kts | 242° |
| 2026-04-14 12:47 | 44.30856 | 9.55996 | 17870 ft | 356 kts | 242° |
| 2026-04-14 12:47 | 44.29698 | 9.52933 | 17450 ft | 355 kts | 242° |
| 2026-04-14 12:47 | 44.28545 | 9.49884 | 17026 ft | 355 kts | 242° |
| 2026-04-14 12:47 | 44.27393 | 9.46844 | 16600 ft | 354 kts | 242° |
| 2026-04-14 12:48 | 44.26255 | 9.43847 | 16180 ft | 353 kts | 242° |
| 2026-04-14 12:48 | 44.25100 | 9.40809 | 15746 ft | 352 kts | 242° |
| 2026-04-14 12:48 | 44.23960 | 9.37817 | 15280 ft | 352 kts | 242° |
| 2026-04-14 12:48 | 44.22858 | 9.34927 | 14851 ft | 352 kts | 241° |
| 2026-04-14 12:49 | 44.21695 | 9.31812 | 14407 ft | 351 kts | 244° |
| 2026-04-14 12:49 | 44.20702 | 9.28724 | 13977 ft | 349 kts | 246° |
| 2026-04-14 12:49 | 44.19753 | 9.25599 | 13552 ft | 348 kts | 247° |
| 2026-04-14 12:49 | 44.18823 | 9.22515 | 13127 ft | 347 kts | 247° |
| 2026-04-14 12:50 | 44.17906 | 9.19443 | 12706 ft | 345 kts | 249° |
| 2026-04-14 12:50 | 44.16733 | 9.13025 | 11888 ft | 341 kts | 262° |
| 2026-04-14 12:50 | 44.16405 | 9.09789 | 11482 ft | 339 kts | 263° |
| 2026-04-14 12:51 | 44.16093 | 9.06514 | 11064 ft | 338 kts | 263° |
| 2026-04-14 12:51 | 44.15785 | 9.03305 | 10671 ft | 336 kts | 263° |
| 2026-04-14 12:51 | 44.15472 | 9.00104 | 10271 ft | 334 kts | 263° |
| 2026-04-14 12:51 | 44.15156 | 8.96941 | 10040 ft | 324 kts | 263° |
| 2026-04-14 12:52 | 44.14851 | 8.93923 | 9960 ft | 311 kts | 263° |
| 2026-04-14 12:52 | 44.14554 | 8.91001 | 9767 ft | 303 kts | 263° |
| 2026-04-14 12:52 | 44.14257 | 8.88100 | 9409 ft | 301 kts | 263° |
| 2026-04-14 12:52 | 44.13962 | 8.85218 | 9057 ft | 298 kts | 263° |
| 2026-04-14 12:53 | 44.13681 | 8.82391 | 8709 ft | 295 kts | 266° |
| 2026-04-14 12:53 | 44.13826 | 8.79593 | 8366 ft | 288 kts | 288° |
| 2026-04-14 12:53 | 44.14613 | 8.77066 | 8026 ft | 282 kts | 301° |
| 2026-04-14 12:53 | 44.15553 | 8.74683 | 7716 ft | 278 kts | 302° |
| 2026-04-14 12:54 | 44.16530 | 8.72349 | 7353 ft | 275 kts | 309° |
| 2026-04-14 12:54 | 44.17887 | 8.70529 | 6936 ft | 269 kts | 326° |
| 2026-04-14 12:54 | 44.19423 | 8.69024 | 6515 ft | 264 kts | 328° |
| 2026-04-14 12:54 | 44.20908 | 8.67578 | 6150 ft | 258 kts | 327° |
| 2026-04-14 12:55 | 44.22349 | 8.66109 | 5665 ft | 258 kts | 326° |
| 2026-04-14 12:55 | 44.23768 | 8.64610 | 5203 ft | 256 kts | 325° |
| 2026-04-14 12:55 | 44.25169 | 8.63096 | 4949 ft | 249 kts | 326° |
| 2026-04-14 12:55 | 44.26487 | 8.61656 | 4916 ft | 233 kts | 326° |
| 2026-04-14 12:56 | 44.27727 | 8.60296 | 4909 ft | 222 kts | 326° |
| 2026-04-14 12:56 | 44.28981 | 8.59187 | 4957 ft | 204 kts | 345° |
| 2026-04-14 12:56 | 44.30292 | 8.59270 | 4757 ft | 186 kts | 20° |
| 2026-04-14 12:56 | 44.31515 | 8.59862 | 4551 ft | 183 kts | 19° |
| 2026-04-14 12:57 | 44.32735 | 8.60360 | 4341 ft | 181 kts | 18° |
| 2026-04-14 12:57 | 44.33940 | 8.60824 | 4128 ft | 181 kts | 18° |
| 2026-04-14 12:57 | 44.35117 | 8.61394 | 3885 ft | 175 kts | 33° |
| 2026-04-14 12:57 | 44.35854 | 8.62695 | 3579 ft | 173 kts | 62° |
| 2026-04-14 12:58 | 44.36412 | 8.64195 | 3391 ft | 173 kts | 62° |
| 2026-04-14 12:58 | 44.36983 | 8.65672 | 3212 ft | 172 kts | 62° |
| 2026-04-14 12:58 | 44.37546 | 8.67093 | 2906 ft | 160 kts | 60° |
| 2026-04-14 12:58 | 44.38065 | 8.68378 | 2601 ft | 148 kts | 60° |
| 2026-04-14 12:59 | 44.38566 | 8.69627 | 2351 ft | 145 kts | 60° |
| 2026-04-14 12:59 | 44.39046 | 8.70857 | 2173 ft | 145 kts | 61° |
| 2026-04-14 12:59 | 44.39525 | 8.72120 | 1987 ft | 145 kts | 62° |
| 2026-04-14 12:59 | 44.39988 | 8.73373 | 1730 ft | 145 kts | 62° |
| 2026-04-14 13:00 | 44.40467 | 8.74599 | 1452 ft | 144 kts | 59° |
| 2026-04-14 13:00 | 44.40974 | 8.75794 | 1255 ft | 143 kts | 57° |
| 2026-04-14 13:00 | 44.41519 | 8.76954 | 984 ft | 143 kts | 53° |
| 2026-04-14 13:00 | 44.42005 | 8.78165 | 680 ft | 144 kts | 71° |
| 2026-04-14 13:01 | 44.42065 | 8.79545 | 491 ft | 143 kts | 91° |
| 2026-04-14 13:01 | 44.41835 | 8.80888 | 291 ft | 142 kts | 102° |
| 2026-04-14 13:01 | 44.41580 | 8.82190 | 109 ft | 139 kts | 98° |
| 2026-04-14 13:01 | 44.41346 | 8.83433 | 30 ft | 118 kts | 105° |
| 2026-04-14 13:02 | 44.41169 | 8.84315 | 30 ft | 68 kts | 104° |
| 2026-04-14 13:02 | 44.41086 | 8.84738 | 30 ft | 18 kts | 107° |
| 2026-04-14 13:02 | 44.41099 | 8.84843 | 31 ft | 10 kts | 36° |
| 2026-04-14 13:02 | 44.41164 | 8.84889 | 31 ft | 10 kts | 14° |
| 2026-04-14 13:03 | 44.41232 | 8.84916 | 31 ft | 10 kts | 15° |
| 2026-04-14 13:03 | 44.41299 | 8.84943 | 31 ft | 9 kts | 16° |
| 2026-04-14 13:03 | 44.41333 | 8.84968 | 31 ft | 4 kts | 68° |
| 2026-04-14 13:03 | 44.41352 | 8.85004 | 32 ft | 4 kts | 36° |
| 2026-04-14 13:04 | 44.41381 | 8.85019 | 32 ft | 4 kts | 18° |
| 2026-04-14 13:04 | 44.41401 | 8.85028 | 32 ft | 2 kts | 17° |
| 2026-04-14 13:04 | 44.41414 | 8.85033 | 32 ft | 0 kts | 18° |
| 2026-04-14 13:04 | 44.41414 | 8.85034 | 32 ft | 0 kts | 18° |